createdAt,value
2022-08-30T00:01:08.047Z,21.12
2022-08-30T00:06:17.163Z,21.06
2022-08-30T00:11:26.149Z,20.88
2022-08-30T00:16:37.962Z,20.75
2022-08-30T00:21:47.078Z,20.69
2022-08-30T00:26:56.253Z,20.69
2022-08-30T00:32:05.187Z,20.75
2022-08-30T00:37:14.163Z,20.75
2022-08-30T00:42:23.090Z,20.62
2022-08-30T00:47:32.240Z,20.44
2022-08-30T00:52:41.224Z,20.25
2022-08-30T00:57:50.189Z,20.12
2022-08-30T01:02:59.182Z,19.87
2022-08-30T01:08:08.084Z,19.69
2022-08-30T01:13:17.264Z,19.56
2022-08-30T01:18:26.085Z,19.44
2022-08-30T01:23:34.830Z,19.37
2022-08-30T01:28:43.895Z,19.44
2022-08-30T01:33:52.905Z,19.5
2022-08-30T01:39:02.040Z,19.5
2022-08-30T01:44:11.049Z,19.56
2022-08-30T01:49:26.043Z,19.56
2022-08-30T01:54:29.267Z,19.62
2022-08-30T01:59:38.062Z,19.44
2022-08-30T02:04:47.013Z,19.31
2022-08-30T02:09:56.133Z,19.19
2022-08-30T02:15:05.311Z,19.12
2022-08-30T02:20:14.318Z,19.06
2022-08-30T02:25:23.171Z,19.06
2022-08-30T02:35:41.221Z,18.75
2022-08-30T02:40:50.092Z,18.5
2022-08-30T02:55:54.972Z,17.81
2022-08-30T03:01:04.042Z,17.62
2022-08-30T03:06:12.915Z,17.44
2022-08-30T03:11:21.846Z,17.25
2022-08-30T03:16:30.898Z,17.12
2022-08-30T03:21:39.950Z,17
2022-08-30T03:26:48.962Z,16.81
2022-08-30T03:31:57.941Z,16.62
2022-08-30T03:37:06.771Z,16.44
2022-08-30T03:42:15.772Z,16.31
2022-08-30T03:52:22.797Z,16.06
2022-08-30T03:57:31.684Z,15.94
2022-08-30T04:02:40.696Z,15.88
2022-08-30T04:07:49.705Z,15.75
2022-08-30T04:12:58.577Z,15.63
2022-08-30T04:28:03.924Z,15.25
2022-08-30T04:38:11.300Z,15.06
2022-08-30T04:43:20.430Z,15.06
2022-08-30T04:53:27.738Z,15.06
2022-08-30T04:58:36.814Z,15.06
2022-08-30T05:03:45.960Z,15.06
2022-08-30T05:08:54.927Z,15
2022-08-30T05:14:03.991Z,15.06
2022-08-30T05:19:12.972Z,15.06
2022-08-30T05:24:21.962Z,15.13
2022-08-30T05:34:40.076Z,15.25
2022-08-30T05:39:51.556Z,15.31
2022-08-30T05:44:58.236Z,15.38
2022-08-30T05:50:07.486Z,15.44
2022-08-30T05:55:16.476Z,15.5
2022-08-30T06:00:25.610Z,15.56
2022-08-30T06:05:34.770Z,15.69
2022-08-30T06:10:43.808Z,15.69
2022-08-30T06:21:01.858Z,15.75
2022-08-30T06:26:11.016Z,15.88
2022-08-30T06:31:20.180Z,16.06
2022-08-30T06:36:29.119Z,16.19
2022-08-30T06:41:38.139Z,16.44
2022-08-30T06:51:45.649Z,16.94
2022-08-30T06:56:58.385Z,17.31
2022-08-30T07:02:04.347Z,17.56
2022-08-30T07:07:13.489Z,18
2022-08-30T07:12:22.522Z,18.19
2022-08-30T07:17:34.651Z,18.5
2022-08-30T07:22:40.817Z,18.81
2022-08-30T07:27:50.007Z,19.19
2022-08-30T07:32:58.985Z,19.5
2022-08-30T07:38:08.220Z,19.69
2022-08-30T07:43:17.528Z,20.12
2022-08-30T07:48:26.359Z,20.44
2022-08-30T07:53:35.648Z,20.75
2022-08-30T07:58:44.849Z,20.88
2022-08-30T08:03:53.907Z,20.94
2022-08-30T08:09:02.951Z,21.5
2022-08-30T08:14:12.216Z,22.06
2022-08-30T08:19:21.502Z,22.75
2022-08-30T08:24:30.727Z,23.06
2022-08-30T08:29:39.891Z,23.25
2022-08-30T08:34:49.000Z,24.06
2022-08-30T08:39:58.396Z,24.63
2022-08-30T08:45:10.892Z,24.94
2022-08-30T08:50:17.263Z,25.06
2022-08-30T08:55:25.342Z,25
2022-08-30T09:00:34.714Z,25
2022-08-30T09:05:43.586Z,25.25
2022-08-30T09:10:55.911Z,25.56
2022-08-30T09:16:04.891Z,25.62
2022-08-30T09:26:23.220Z,25.69
2022-08-30T09:31:32.293Z,26.37
2022-08-30T09:36:41.506Z,26.75
2022-08-30T09:41:50.550Z,26.81
2022-08-30T09:46:59.709Z,26.94
2022-08-30T09:52:09.090Z,27.56
2022-08-30T10:02:28.239Z,27.56
2022-08-30T10:07:38.526Z,27.62
2022-08-30T10:12:47.823Z,27.69
2022-08-30T10:17:56.727Z,27.19
2022-08-30T10:23:05.685Z,27.62
2022-08-30T10:28:14.827Z,28.25
2022-08-30T10:33:25.459Z,28.69
2022-08-30T10:38:33.404Z,28.31
2022-08-30T10:43:42.421Z,28.5
2022-08-30T10:48:51.628Z,29.19
2022-08-30T10:54:00.892Z,29.44
2022-08-30T10:59:11.908Z,29.63
2022-08-30T11:04:19.618Z,30.37
2022-08-30T11:09:28.911Z,30.5
2022-08-30T11:14:37.616Z,29.81
2022-08-30T11:19:46.827Z,30.62
2022-08-30T11:24:56.478Z,31
2022-08-30T11:30:05.651Z,31
2022-08-30T11:35:14.563Z,31.12
2022-08-30T11:40:23.613Z,31.06
2022-08-30T11:45:32.876Z,31.69
2022-08-30T11:50:44.310Z,31.81
2022-08-30T11:55:51.074Z,31.37
2022-08-30T12:00:59.555Z,31.19
2022-08-30T12:06:09.723Z,32.19
2022-08-30T12:11:18.903Z,31.94
2022-08-30T12:16:27.414Z,31.69
2022-08-30T12:21:44.057Z,31.62
2022-08-30T12:26:46.204Z,32.44
2022-08-30T12:31:55.791Z,33.06
2022-08-30T12:37:05.022Z,33.56
2022-08-30T12:42:17.601Z,33.56
2022-08-30T12:47:21.949Z,32.63
2022-08-30T12:52:30.186Z,31.87
2022-08-30T12:57:38.842Z,31.5
2022-08-30T13:02:48.576Z,32.06
2022-08-30T13:07:57.428Z,32.69
2022-08-30T13:13:06.413Z,32.63
2022-08-30T13:18:15.787Z,33.31
2022-08-30T13:23:24.499Z,32.69
2022-08-30T13:28:32.970Z,32
2022-08-30T13:33:41.680Z,31.75
2022-08-30T13:38:51.601Z,32.94
2022-08-30T13:44:16.464Z,34.5
2022-08-30T13:49:42.932Z,34.31
2022-08-30T13:54:19.211Z,35
2022-08-30T13:59:28.560Z,35.88
2022-08-30T14:04:37.860Z,36.31
2022-08-30T14:09:46.843Z,36.13
2022-08-30T14:14:58.911Z,36.56
2022-08-30T14:20:04.708Z,36.69
2022-08-30T14:25:13.842Z,36.69
2022-08-30T14:30:22.940Z,36.69
2022-08-30T14:35:32.027Z,35.5
2022-08-30T14:40:41.044Z,36.25
2022-08-30T14:45:50.122Z,36.25
2022-08-30T14:50:59.226Z,36.38
2022-08-30T14:56:08.322Z,36.19
2022-08-30T15:01:17.378Z,35.38
2022-08-30T15:06:26.569Z,36.25
2022-08-30T15:11:35.569Z,35.81
2022-08-30T15:16:44.714Z,35.63
2022-08-30T15:21:53.702Z,36.31
2022-08-30T15:27:02.759Z,36.06
2022-08-30T15:32:11.619Z,35
2022-08-30T15:37:20.569Z,34.31
2022-08-30T15:42:29.430Z,33.88
2022-08-30T15:47:38.307Z,33.25
2022-08-30T15:52:47.426Z,33.69
2022-08-30T15:57:56.605Z,34.06
2022-08-30T16:03:05.703Z,33.75
2022-08-30T16:08:14.632Z,32.75
2022-08-30T16:13:23.634Z,32.25
2022-08-30T16:18:32.551Z,31.69
2022-08-30T16:23:41.265Z,30.56
2022-08-30T16:28:50.069Z,30
2022-08-30T16:34:02.307Z,29.63
2022-08-30T16:39:08.302Z,29.12
2022-08-30T16:44:17.748Z,28.94
2022-08-30T16:49:25.795Z,28.75
2022-08-30T16:54:34.706Z,28.38
2022-08-30T16:59:43.674Z,28.06
2022-08-30T17:04:53.252Z,27.81
2022-08-30T17:10:01.463Z,27.56
2022-08-30T17:20:19.376Z,27.19
2022-08-30T17:25:30.784Z,26.94
2022-08-30T17:30:37.583Z,26.75
2022-08-30T17:35:46.446Z,26.44
2022-08-30T17:40:55.218Z,26.12
2022-08-30T17:46:07.301Z,25.88
2022-08-30T17:51:16.287Z,25.62
2022-08-30T17:56:25.417Z,25.37
2022-08-30T18:01:34.383Z,25.06
2022-08-30T18:06:43.300Z,24.87
2022-08-30T18:11:52.102Z,24.63
2022-08-30T18:17:01.073Z,24.31
2022-08-30T18:22:09.939Z,23.94
2022-08-30T18:27:18.919Z,23.69
2022-08-30T18:32:32.794Z,23.5
2022-08-30T18:37:37.029Z,23.38
2022-08-30T18:42:45.862Z,23.25
2022-08-30T18:47:54.843Z,23.19
2022-08-30T18:53:03.845Z,23.19
2022-08-30T18:58:12.956Z,23.19
2022-08-30T19:03:21.911Z,23.12
2022-08-30T19:08:30.814Z,23.06
2022-08-30T19:18:37.701Z,22.81
2022-08-30T19:23:47.749Z,22.69
2022-08-30T19:28:55.875Z,22.62
2022-08-30T19:34:04.903Z,22.56
2022-08-30T19:39:13.910Z,22.56
2022-08-30T19:44:22.916Z,22.44
2022-08-30T19:54:41.143Z,22.25
2022-08-30T19:59:50.030Z,22.13
2022-08-30T20:04:59.062Z,22.06
2022-08-30T20:10:07.906Z,21.94
2022-08-30T20:20:15.382Z,21.81
2022-08-30T20:25:24.321Z,21.69
2022-08-30T20:30:33.547Z,21.56
2022-08-30T20:35:45.513Z,21.5
2022-08-30T20:40:51.678Z,21.44
2022-08-30T20:46:00.771Z,21.5
2022-08-30T20:56:19.647Z,21.75
2022-08-30T21:06:27.108Z,22.06
2022-08-30T21:11:36.094Z,22.31
2022-08-30T21:16:45.370Z,22.56
2022-08-30T21:27:03.408Z,22.81
2022-08-30T21:32:12.390Z,23
2022-08-30T21:37:21.646Z,23.19
2022-08-30T21:42:30.624Z,23.19
2022-08-30T21:52:48.625Z,23.25
2022-08-30T21:57:57.745Z,23.25
2022-08-30T22:03:06.762Z,23.19
2022-08-30T22:08:15.763Z,23.12
2022-08-30T22:13:24.847Z,23.12
2022-08-30T22:18:33.860Z,23
2022-08-30T22:23:42.849Z,23
2022-08-30T22:28:51.781Z,23
2022-08-30T22:34:03.810Z,22.94
2022-08-30T22:39:12.945Z,23
2022-08-30T22:44:21.999Z,22.94
2022-08-30T22:49:30.959Z,22.81
2022-08-30T22:54:39.978Z,23
2022-08-30T22:59:49.062Z,23
2022-08-30T23:04:58.085Z,22.94
2022-08-30T23:10:07.125Z,22.94
2022-08-30T23:15:16.054Z,22.81
2022-08-30T23:20:25.125Z,22.81
2022-08-30T23:25:34.741Z,22.69
2022-08-30T23:30:43.216Z,22.69
2022-08-30T23:35:52.191Z,22.69
2022-08-30T23:41:01.221Z,22.69
2022-08-30T23:46:10.182Z,22.69
